KSAA

Shively Field Airport

Saratoga, Wyoming, USA
METAR KSAA 181335Z AUTO 00000KT 1SM SN OVC005 M01/M01 A2979 RMK AO2
Observed Flight Rules
Jan-18 @ 13:35 UTC (26 minutes ago) Instrument Flight Rules
Visibility Clouds Conditions
1 miles
  • Overcast at 500' AGL
  • Snow
Temperatures Readings
Current -1°C / 30°F
Dewpoint -1°C / 30°F
Humidity 100%
Altimeter 29.79" Hg
Pressure 1008.82 hPa
Elevation 2138
METAR KSAA 181335Z AUTO 00000KT 1SM SN OVC005 M01/M01 A2979 RMK AO2
Observed Flight Rules
Jan-18 @ 13:35 UTC
(26 minutes ago)
IFR
Clouds
  • Overcast at 500' AGL
Conditions
  • Snow
Temperature Dewpoint
-1°C / 30°F -1°C / 30°F
Humidity Altimeter Pressure
100% 29.79" Hg 1008.82 hPa